createdAt,value
2018-04-27T00:00:47.192Z,3.00
2018-04-27T00:03:20.892Z,3.43
2018-04-27T00:05:50.103Z,3.40
2018-04-27T00:08:19.450Z,3.70
2018-04-27T00:10:48.695Z,3.20
2018-04-27T00:13:18.015Z,2.97
2018-04-27T00:15:47.207Z,3.20
2018-04-27T00:18:20.236Z,3.03
2018-04-27T00:20:50.169Z,3.40
2018-04-27T00:23:19.345Z,3.60
2018-04-27T00:25:48.517Z,3.27
2018-04-27T00:28:17.887Z,3.20
2018-04-27T00:30:47.073Z,3.20
2018-04-27T00:33:17.100Z,3.57
2018-04-27T00:35:46.280Z,2.63
2018-04-27T00:38:17.044Z,3.00
2018-04-27T00:40:46.214Z,3.20
2018-04-27T00:43:15.531Z,3.53
2018-04-27T00:45:44.702Z,3.00
2018-04-27T00:48:15.458Z,3.50
2018-04-27T00:50:44.673Z,3.23
2018-04-27T00:53:14.828Z,3.37
2018-04-27T00:55:44.830Z,3.10
2018-04-27T00:58:14.107Z,3.17
2018-04-27T01:00:43.308Z,3.10
2018-04-27T01:03:13.380Z,3.03
2018-04-27T01:05:43.338Z,3.00
2018-04-27T01:08:12.528Z,3.43
2018-04-27T01:10:41.753Z,3.33
2018-04-27T01:13:11.028Z,3.20
2018-04-27T01:15:40.177Z,3.50
2018-04-27T01:18:09.296Z,3.30
2018-04-27T01:20:38.600Z,3.30
2018-04-27T01:23:08.528Z,3.27
2018-04-27T01:25:37.782Z,3.27
2018-04-27T01:28:07.001Z,2.90
2018-04-27T01:30:36.249Z,3.57
2018-04-27T01:33:05.497Z,3.20
2018-04-27T01:35:34.676Z,3.30
2018-04-27T01:38:04.664Z,2.83
2018-04-27T01:40:33.923Z,3.03
2018-04-27T01:43:03.891Z,3.47
2018-04-27T01:45:33.072Z,3.10
2018-04-27T01:48:02.236Z,3.03
2018-04-27T01:50:31.513Z,3.37
2018-04-27T01:53:01.520Z,3.03
2018-04-27T01:55:31.517Z,3.10
2018-04-27T01:58:00.785Z,3.20
2018-04-27T02:00:29.985Z,3.30
2018-04-27T02:02:59.258Z,3.20
2018-04-27T02:05:29.164Z,3.40
2018-04-27T02:07:59.088Z,3.30
2018-04-27T02:10:28.330Z,2.93
2018-04-27T02:12:57.435Z,3.03
2018-04-27T02:15:26.650Z,3.20
2018-04-27T02:17:56.652Z,3.40
2018-04-27T02:20:25.852Z,3.40
2018-04-27T02:22:55.064Z,3.03
2018-04-27T02:25:25.008Z,3.73
2018-04-27T02:27:54.322Z,3.70
2018-04-27T02:30:23.575Z,3.30
2018-04-27T02:32:52.858Z,3.20
2018-04-27T02:35:22.027Z,3.30
2018-04-27T02:37:51.380Z,3.10
2018-04-27T02:40:20.529Z,3.43
2018-04-27T02:42:49.725Z,3.60
2018-04-27T02:45:18.864Z,3.40
2018-04-27T02:47:48.071Z,3.80
2018-04-27T02:50:17.334Z,3.30
2018-04-27T02:52:46.600Z,3.43
2018-04-27T02:55:16.577Z,3.30
2018-04-27T02:57:45.829Z,3.83
2018-04-27T03:00:14.969Z,3.53
2018-04-27T03:02:44.340Z,3.53
2018-04-27T03:05:13.540Z,3.07
2018-04-27T03:07:42.746Z,3.67
2018-04-27T03:10:12.034Z,3.50
2018-04-27T03:12:41.261Z,3.50
2018-04-27T03:15:10.440Z,3.20
2018-04-27T03:17:39.666Z,3.57
2018-04-27T03:20:08.825Z,3.87
2018-04-27T03:22:38.096Z,3.47
2018-04-27T03:25:08.069Z,4.40
2018-04-27T03:27:38.025Z,3.47
2018-04-27T03:30:07.294Z,3.20
2018-04-27T03:32:36.496Z,3.40
2018-04-27T03:35:05.770Z,3.70
2018-04-27T03:37:35.688Z,3.50
2018-04-27T03:40:04.961Z,3.87
2018-04-27T03:42:34.185Z,3.40
2018-04-27T03:45:03.364Z,3.67
2018-04-27T03:47:32.971Z,3.80
2018-04-27T03:50:02.245Z,3.60
2018-04-27T03:52:31.465Z,3.80
2018-04-27T03:55:00.651Z,3.37
2018-04-27T03:57:29.878Z,3.37
2018-04-27T04:03:17.708Z,4.30
2018-04-27T04:05:46.976Z,3.40
2018-04-27T04:08:16.378Z,3.70
2018-04-27T04:10:45.711Z,4.00
2018-04-27T04:13:15.832Z,3.70
2018-04-27T04:15:45.156Z,4.20
2018-04-27T04:18:14.575Z,3.43
2018-04-27T04:20:43.921Z,3.70
2018-04-27T04:23:14.141Z,3.50
2018-04-27T04:25:43.581Z,3.93
2018-04-27T04:28:13.718Z,4.00
2018-04-27T04:30:43.038Z,4.40
2018-04-27T04:33:15.943Z,3.50
2018-04-27T04:35:45.267Z,3.27
2018-04-27T04:38:14.730Z,3.57
2018-04-27T04:40:44.043Z,3.30
2018-04-27T04:43:13.399Z,4.00
2018-04-27T04:45:43.256Z,3.73
2018-04-27T04:48:13.447Z,3.50
2018-04-27T04:50:43.533Z,3.70
2018-04-27T04:53:12.854Z,3.60
2018-04-27T04:55:42.169Z,3.80
2018-04-27T04:58:11.660Z,3.83
2018-04-27T05:00:41.005Z,3.50
2018-04-27T05:03:11.236Z,3.47
2018-04-27T05:05:41.806Z,3.40
2018-04-27T05:08:11.618Z,3.23
2018-04-27T05:10:41.121Z,3.53
2018-04-27T05:13:10.380Z,3.00
2018-04-27T05:15:40.143Z,3.40
2018-04-27T05:21:24.333Z,2.70
2018-04-27T05:23:53.604Z,2.70
2018-04-27T05:26:22.876Z,2.80
2018-04-27T05:28:52.141Z,3.20
2018-04-27T05:31:25.348Z,3.27
2018-04-27T05:33:54.632Z,2.90
2018-04-27T05:36:23.932Z,3.27
2018-04-27T05:38:53.215Z,3.10
2018-04-27T05:41:22.727Z,3.50
2018-04-27T05:43:52.118Z,2.80
2018-04-27T05:46:21.474Z,2.90
2018-04-27T05:48:50.740Z,2.40
2018-04-27T05:51:20.060Z,3.60
2018-04-27T05:53:49.420Z,2.83
2018-04-27T05:56:18.759Z,2.80
2018-04-27T05:58:48.091Z,2.80
2018-04-27T06:01:17.269Z,2.90
2018-04-27T06:03:58.407Z,2.80
2018-04-27T06:06:33.242Z,2.50
2018-04-27T06:09:03.144Z,2.57
2018-04-27T06:11:32.505Z,2.80
2018-04-27T06:14:02.362Z,2.80
2018-04-27T06:16:31.724Z,2.80
2018-04-27T06:19:01.224Z,3.20
2018-04-27T06:21:30.462Z,2.70
2018-04-27T06:24:00.503Z,2.80
2018-04-27T06:26:30.464Z,2.57
2018-04-27T06:29:05.389Z,2.53
2018-04-27T06:31:34.689Z,2.80
2018-04-27T06:34:03.891Z,2.43
2018-04-27T06:36:33.182Z,2.80
2018-04-27T06:39:03.407Z,2.83
2018-04-27T06:41:32.666Z,3.10
2018-04-27T06:44:02.242Z,2.80
2018-04-27T06:46:35.099Z,2.77
2018-04-27T06:49:04.399Z,2.57
2018-04-27T06:51:33.609Z,2.80
2018-04-27T06:54:02.777Z,2.50
2018-04-27T06:56:32.093Z,2.60
2018-04-27T06:59:01.497Z,2.20
2018-04-27T07:01:30.705Z,2.17
2018-04-27T07:04:00.097Z,2.50
2018-04-27T07:06:29.395Z,2.40
2018-04-27T07:08:59.516Z,2.37
2018-04-27T07:11:28.994Z,2.40
2018-04-27T07:13:58.341Z,2.00
2018-04-27T07:16:27.725Z,2.10
2018-04-27T07:18:57.011Z,2.10
2018-04-27T07:21:26.734Z,2.00
2018-04-27T07:23:55.956Z,2.30
2018-04-27T07:26:25.131Z,2.10
2018-04-27T07:28:54.332Z,2.20
2018-04-27T07:31:23.500Z,2.17
2018-04-27T07:33:52.718Z,2.13
2018-04-27T07:36:22.011Z,1.93
2018-04-27T07:38:51.285Z,2.27
2018-04-27T07:41:20.422Z,1.83
2018-04-27T07:43:49.717Z,1.70
2018-04-27T07:46:18.891Z,1.80
2018-04-27T07:48:48.152Z,1.80
2018-04-27T07:51:17.344Z,1.80
2018-04-27T07:53:46.619Z,1.60
2018-04-27T07:56:15.765Z,1.80
2018-04-27T07:58:45.719Z,1.40
2018-04-27T08:01:14.993Z,2.27
2018-04-27T08:03:44.229Z,1.40
2018-04-27T08:06:13.584Z,1.60
2018-04-27T08:08:42.973Z,1.60
2018-04-27T08:11:12.909Z,1.33
2018-04-27T08:13:42.036Z,1.80
2018-04-27T08:16:11.404Z,1.80
2018-04-27T08:18:40.551Z,1.80
2018-04-27T08:21:09.709Z,1.57
2018-04-27T08:23:38.916Z,1.63
2018-04-27T08:26:09.087Z,1.80
2018-04-27T08:28:38.350Z,2.13
2018-04-27T08:31:07.629Z,1.30
2018-04-27T08:33:36.956Z,2.03
2018-04-27T08:36:06.181Z,1.80
2018-04-27T08:38:35.331Z,1.50
2018-04-27T08:41:04.494Z,1.43
2018-04-27T08:43:33.672Z,1.87
2018-04-27T08:46:02.971Z,1.50
2018-04-27T08:48:32.892Z,1.57
2018-04-27T08:51:02.077Z,1.57
2018-04-27T08:53:32.048Z,1.63
2018-04-27T08:56:03.326Z,2.10
2018-04-27T08:58:32.490Z,1.87
2018-04-27T09:01:01.664Z,1.50
2018-04-27T09:03:30.872Z,1.53
2018-04-27T09:06:00.833Z,1.87
2018-04-27T09:08:29.992Z,1.83
2018-04-27T09:10:59.944Z,1.50
2018-04-27T09:13:29.238Z,1.87
2018-04-27T09:15:58.435Z,1.80
2018-04-27T09:18:27.618Z,1.73
2018-04-27T09:20:56.863Z,1.80
2018-04-27T09:23:26.044Z,1.63
2018-04-27T09:25:55.351Z,1.70
2018-04-27T09:28:24.670Z,1.93
2018-04-27T09:30:54.560Z,1.73
2018-04-27T09:33:23.762Z,2.00
2018-04-27T09:35:52.765Z,2.00
2018-04-27T09:38:21.835Z,1.80
2018-04-27T09:40:51.073Z,1.93
2018-04-27T09:43:21.143Z,1.50
2018-04-27T09:45:51.158Z,1.60
2018-04-27T09:48:20.777Z,1.50
2018-04-27T09:50:51.073Z,1.43
2018-04-27T09:53:20.512Z,2.13
2018-04-27T09:55:49.900Z,1.73
2018-04-27T09:58:19.102Z,1.80
2018-04-27T10:00:48.448Z,1.80
2018-04-27T10:03:18.620Z,2.00
2018-04-27T10:05:47.827Z,1.70
2018-04-27T10:08:17.117Z,1.80
2018-04-27T10:10:46.353Z,1.73
2018-04-27T10:13:16.653Z,1.50
2018-04-27T10:15:45.924Z,2.00
2018-04-27T10:18:17.060Z,1.90
2018-04-27T10:20:46.259Z,2.37
2018-04-27T10:23:15.457Z,1.90
2018-04-27T10:25:44.732Z,1.70
2018-04-27T10:28:14.181Z,1.57
2018-04-27T10:30:43.431Z,1.90
2018-04-27T10:33:17.083Z,2.20
2018-04-27T10:35:46.366Z,1.80
2018-04-27T10:38:15.805Z,1.70
2018-04-27T10:40:45.094Z,1.90
2018-04-27T10:43:14.379Z,1.77
2018-04-27T10:45:43.663Z,2.00
2018-04-27T10:48:18.618Z,1.73
2018-04-27T10:50:47.823Z,1.80
2018-04-27T10:53:17.124Z,1.70
2018-04-27T10:55:46.632Z,1.97
2018-04-27T10:58:16.010Z,1.93
2018-04-27T11:00:45.428Z,1.77
2018-04-27T11:03:14.659Z,2.10
2018-04-27T11:05:43.967Z,2.30
2018-04-27T11:08:13.153Z,2.20
2018-04-27T11:10:42.324Z,2.03
2018-04-27T11:13:11.679Z,1.90
2018-04-27T11:15:40.862Z,1.90
2018-04-27T11:18:11.415Z,2.00
2018-04-27T11:20:41.396Z,2.00
2018-04-27T11:23:11.351Z,2.00
2018-04-27T11:25:40.894Z,1.80
2018-04-27T11:28:10.123Z,2.10
2018-04-27T11:30:40.252Z,2.13
2018-04-27T11:33:10.328Z,1.90
2018-04-27T11:35:39.632Z,1.70
2018-04-27T11:38:09.025Z,1.60
2018-04-27T11:40:38.198Z,1.80
2018-04-27T11:43:08.177Z,1.60
2018-04-27T11:45:38.136Z,1.70
2018-04-27T11:48:10.948Z,1.70
2018-04-27T11:50:40.157Z,2.10
2018-04-27T11:53:09.458Z,1.90
2018-04-27T11:55:38.646Z,2.03
2018-04-27T11:58:07.836Z,2.00
2018-04-27T12:00:37.150Z,1.93
2018-04-27T12:03:06.336Z,2.00
2018-04-27T12:05:35.718Z,1.70
2018-04-27T12:08:04.929Z,1.90
2018-04-27T12:10:34.173Z,1.50
2018-04-27T12:13:04.164Z,1.73
2018-04-27T12:15:33.546Z,1.60
2018-04-27T12:18:02.733Z,1.93
2018-04-27T12:20:32.864Z,1.90
2018-04-27T12:23:02.065Z,2.23
2018-04-27T12:25:31.280Z,2.00
2018-04-27T12:28:03.859Z,1.80
2018-04-27T12:30:33.039Z,1.90
2018-04-27T12:33:02.071Z,2.10
2018-04-27T12:35:31.047Z,2.17
2018-04-27T12:38:00.322Z,1.73
2018-04-27T12:40:29.689Z,1.70
2018-04-27T12:42:58.919Z,2.10
2018-04-27T12:45:28.118Z,2.00
2018-04-27T12:47:57.402Z,2.17
2018-04-27T12:50:26.763Z,2.00
2018-04-27T12:52:57.921Z,2.10
2018-04-27T12:55:27.197Z,1.70
2018-04-27T12:57:57.019Z,1.97
2018-04-27T13:00:26.218Z,1.90
2018-04-27T13:02:56.181Z,1.77
2018-04-27T13:05:25.490Z,1.70
2018-04-27T13:07:54.857Z,1.83
2018-04-27T13:10:24.027Z,2.03
2018-04-27T13:12:53.282Z,1.70
2018-04-27T13:15:23.509Z,1.80
2018-04-27T13:17:52.809Z,2.03
2018-04-27T13:20:22.114Z,2.07
2018-04-27T13:22:52.661Z,2.03
2018-04-27T13:25:21.837Z,2.10
2018-04-27T13:27:51.029Z,1.80
2018-04-27T13:30:20.334Z,2.00
2018-04-27T13:32:51.776Z,1.90
2018-04-27T13:35:21.191Z,2.17
2018-04-27T13:37:50.408Z,2.13
2018-04-27T13:40:23.535Z,1.90
2018-04-27T13:42:55.484Z,1.77
2018-04-27T13:45:24.699Z,2.10
2018-04-27T13:47:53.990Z,2.10
2018-04-27T13:50:23.981Z,2.10
2018-04-27T13:52:53.252Z,2.27
2018-04-27T13:55:22.395Z,2.20
2018-04-27T13:57:52.387Z,2.20
2018-04-27T14:00:23.465Z,2.30
2018-04-27T14:02:52.776Z,1.70
2018-04-27T14:05:21.959Z,1.77
2018-04-27T14:07:51.882Z,1.90
2018-04-27T14:10:21.133Z,1.77
2018-04-27T14:12:50.324Z,2.30
2018-04-27T14:15:23.271Z,2.07
2018-04-27T14:17:52.509Z,1.80
2018-04-27T14:20:21.643Z,2.33
2018-04-27T14:22:51.587Z,1.87
2018-04-27T14:25:21.636Z,1.87
2018-04-27T14:27:50.823Z,1.90
2018-04-27T14:30:20.033Z,1.90
2018-04-27T14:32:49.230Z,1.60
2018-04-27T14:35:19.550Z,2.40
2018-04-27T14:37:48.726Z,2.23
2018-04-27T14:40:18.044Z,1.90
2018-04-27T14:42:47.196Z,1.67
2018-04-27T14:45:17.246Z,1.70
2018-04-27T14:47:46.482Z,1.80
2018-04-27T14:50:15.874Z,1.97
2018-04-27T14:52:45.260Z,1.80
2018-04-27T14:55:14.580Z,1.87
2018-04-27T14:57:43.885Z,1.90
2018-04-27T15:00:13.171Z,1.90
2018-04-27T15:02:42.463Z,2.10
2018-04-27T15:05:11.684Z,1.60
2018-04-27T15:07:40.845Z,1.87
2018-04-27T15:10:10.101Z,1.60
2018-04-27T15:12:39.359Z,1.60
2018-04-27T15:15:12.169Z,1.53
2018-04-27T15:17:41.577Z,1.80
2018-04-27T15:20:10.895Z,1.63
2018-04-27T15:22:40.260Z,1.80
2018-04-27T15:25:09.780Z,1.60
2018-04-27T15:27:42.552Z,1.80
2018-04-27T15:30:11.722Z,1.47
2018-04-27T15:32:40.980Z,1.83
2018-04-27T15:35:10.763Z,1.63
2018-04-27T15:37:40.705Z,1.90
2018-04-27T15:40:09.913Z,2.00
2018-04-27T15:42:39.153Z,1.80
2018-04-27T15:45:08.404Z,2.30
2018-04-27T15:47:37.617Z,2.03
2018-04-27T15:50:06.776Z,1.90
2018-04-27T15:52:36.032Z,1.77
2018-04-27T15:55:07.393Z,2.23
2018-04-27T15:57:36.578Z,1.70
2018-04-27T16:00:05.768Z,2.00
2018-04-27T16:02:35.030Z,1.80
2018-04-27T16:05:04.145Z,1.70
2018-04-27T16:07:33.361Z,2.00
2018-04-27T16:10:02.746Z,2.10
2018-04-27T16:12:32.084Z,1.93
2018-04-27T16:15:01.386Z,1.50
2018-04-27T16:17:30.560Z,2.07
2018-04-27T16:19:59.804Z,2.20
2018-04-27T16:22:30.055Z,1.83
2018-04-27T16:25:00.047Z,2.17
2018-04-27T16:27:29.203Z,2.10
2018-04-27T16:29:59.387Z,2.17
2018-04-27T16:32:29.658Z,1.50
2018-04-27T16:35:01.934Z,1.50
2018-04-27T16:37:35.113Z,1.70
2018-04-27T16:40:04.339Z,1.73
2018-04-27T16:42:34.138Z,1.70
2018-04-27T16:45:03.944Z,2.10
2018-04-27T16:47:33.141Z,2.10
2018-04-27T16:50:02.442Z,1.90
2018-04-27T16:52:31.805Z,2.20
2018-04-27T16:55:00.878Z,2.20
2018-04-27T16:57:30.808Z,2.03
2018-04-27T17:00:00.159Z,2.20
2018-04-27T17:02:29.436Z,2.03
2018-04-27T17:04:58.755Z,2.00
2018-04-27T17:07:28.106Z,2.20
2018-04-27T17:09:57.265Z,1.90
2018-04-27T17:12:29.034Z,2.40
2018-04-27T17:14:58.315Z,2.20
2018-04-27T17:17:27.812Z,1.90
2018-04-27T17:19:56.972Z,1.87
2018-04-27T17:22:29.402Z,2.10
2018-04-27T17:24:58.587Z,2.10
2018-04-27T17:27:27.800Z,1.90
2018-04-27T17:29:56.985Z,2.10
2018-04-27T17:32:26.682Z,2.13
2018-04-27T17:34:56.208Z,2.00
2018-04-27T17:37:25.522Z,1.90
2018-04-27T17:39:55.451Z,2.00
2018-04-27T17:42:25.404Z,1.70
2018-04-27T17:44:54.725Z,1.87
2018-04-27T17:47:23.917Z,1.83
2018-04-27T17:49:53.203Z,1.90
2018-04-27T17:52:22.528Z,1.70
2018-04-27T17:54:51.929Z,1.73
2018-04-27T17:57:21.094Z,1.70
2018-04-27T17:59:50.323Z,2.00
2018-04-27T18:02:20.451Z,2.00
2018-04-27T18:04:49.683Z,2.00
2018-04-27T18:07:18.963Z,2.23
2018-04-27T18:09:48.191Z,2.00
2018-04-27T18:12:17.436Z,2.30
2018-04-27T18:14:46.636Z,1.87
2018-04-27T18:17:15.905Z,2.13
2018-04-27T18:19:46.019Z,2.00
2018-04-27T18:22:15.354Z,2.60
2018-04-27T18:24:44.596Z,2.90
2018-04-27T18:27:14.672Z,2.33
2018-04-27T18:29:44.637Z,2.10
2018-04-27T18:32:15.523Z,1.97
2018-04-27T18:34:44.741Z,2.13
2018-04-27T18:37:13.866Z,2.07
2018-04-27T18:39:43.778Z,1.97
2018-04-27T18:42:13.759Z,2.00
2018-04-27T18:44:43.151Z,2.00
2018-04-27T18:47:12.502Z,1.80
2018-04-27T18:49:42.600Z,2.03
2018-04-27T18:52:11.717Z,2.20
2018-04-27T18:54:41.639Z,2.07
2018-04-27T18:57:11.004Z,1.97
2018-04-27T18:59:45.811Z,2.20
2018-04-27T19:02:15.016Z,2.10
2018-04-27T19:04:44.417Z,3.00
2018-04-27T19:07:13.564Z,2.60
2018-04-27T19:09:43.712Z,3.00
2018-04-27T19:12:12.907Z,3.20
2018-04-27T19:14:42.875Z,3.00
2018-04-27T19:17:14.836Z,3.27
2018-04-27T19:19:44.178Z,2.70
2018-04-27T19:22:13.342Z,2.90
2018-04-27T19:24:43.245Z,2.53
2018-04-27T19:27:12.499Z,2.97
2018-04-27T19:29:41.651Z,3.20
2018-04-27T19:32:11.326Z,3.10
2018-04-27T19:34:40.570Z,2.60
2018-04-27T19:37:09.764Z,3.43
2018-04-27T19:39:38.780Z,3.70
2018-04-27T19:42:07.974Z,3.10
2018-04-27T19:44:37.164Z,3.10
2018-04-27T19:47:06.466Z,3.30
2018-04-27T19:49:36.469Z,2.57
2018-04-27T19:52:05.931Z,2.97
2018-04-27T19:54:35.129Z,3.03
2018-04-27T19:57:04.401Z,2.80
2018-04-27T19:59:33.679Z,2.80
2018-04-27T20:02:02.886Z,2.90
2018-04-27T20:04:32.131Z,2.73
2018-04-27T20:07:01.333Z,2.73
2018-04-27T20:09:30.519Z,3.37
2018-04-27T20:11:59.728Z,2.73
2018-04-27T20:14:31.614Z,3.33
2018-04-27T20:17:03.779Z,3.00
2018-04-27T20:19:50.482Z,2.93
2018-04-27T20:22:21.446Z,2.87
2018-04-27T20:25:01.499Z,3.00
2018-04-27T20:27:31.672Z,2.80
2018-04-27T20:30:03.735Z,3.30
2018-04-27T20:32:32.958Z,3.03
2018-04-27T20:35:04.749Z,3.10
2018-04-27T20:37:34.931Z,3.40
2018-04-27T20:40:04.149Z,3.47
2018-04-27T20:42:34.182Z,3.00
2018-04-27T20:45:06.764Z,3.20
2018-04-27T20:47:35.920Z,2.90
2018-04-27T20:50:05.245Z,3.00
2018-04-27T20:52:36.369Z,2.90
2018-04-27T20:55:06.315Z,3.10
2018-04-27T20:57:35.610Z,3.30
2018-04-27T21:00:05.053Z,3.07
2018-04-27T21:02:35.059Z,3.33
2018-04-27T21:05:04.186Z,3.20
2018-04-27T21:07:33.424Z,3.00
2018-04-27T21:10:03.334Z,3.10
2018-04-27T21:12:34.161Z,2.93
2018-04-27T21:15:05.037Z,2.97
2018-04-27T21:17:34.208Z,3.00
2018-04-27T21:20:04.147Z,2.80
2018-04-27T21:22:37.023Z,2.97
2018-04-27T21:25:06.215Z,3.60
2018-04-27T21:27:36.329Z,3.30
2018-04-27T21:30:06.311Z,3.27
2018-04-27T21:32:35.451Z,2.67
2018-04-27T21:35:05.527Z,3.17
2018-04-27T21:37:40.198Z,2.80
2018-04-27T21:40:10.152Z,3.30
2018-04-27T21:42:39.335Z,2.97
2018-04-27T21:45:08.519Z,3.13
2018-04-27T21:47:37.693Z,3.17
2018-04-27T21:50:07.925Z,2.83
2018-04-27T21:52:52.623Z,2.90
2018-04-27T21:55:21.972Z,3.07
2018-04-27T21:58:08.735Z,3.07
2018-04-27T22:00:37.883Z,3.00
2018-04-27T22:03:14.647Z,3.00
2018-04-27T22:06:02.277Z,3.20
2018-04-27T22:08:37.391Z,3.27
2018-04-27T22:11:10.403Z,3.00
2018-04-27T22:13:40.446Z,3.20
2018-04-27T22:19:16.117Z,3.20
2018-04-27T22:21:47.058Z,3.30
2018-04-27T22:24:19.214Z,2.80
2018-04-27T22:26:48.432Z,3.50
2018-04-27T22:29:22.525Z,3.30
2018-04-27T22:31:54.595Z,3.67
2018-04-27T22:34:26.484Z,3.33
2018-04-27T22:36:56.610Z,3.57
2018-04-27T22:39:39.660Z,3.70
2018-04-27T22:42:10.948Z,3.50
2018-04-27T22:44:47.588Z,3.60
2018-04-27T22:50:21.382Z,3.50
2018-04-27T22:52:50.732Z,4.07
2018-04-27T22:55:20.004Z,3.60
2018-04-27T22:57:52.793Z,3.90
2018-04-27T23:00:22.042Z,4.37
2018-04-27T23:02:51.331Z,4.17
2018-04-27T23:05:25.286Z,3.60
2018-04-27T23:08:00.320Z,3.93
2018-04-27T23:10:32.352Z,4.10
2018-04-27T23:13:03.243Z,4.00
2018-04-27T23:15:38.357Z,3.80
2018-04-27T23:18:08.343Z,3.80
2018-04-27T23:20:38.371Z,4.27
2018-04-27T23:23:07.589Z,4.43
2018-04-27T23:25:45.937Z,3.90
2018-04-27T23:28:15.985Z,4.37
2018-04-27T23:30:47.695Z,4.33
2018-04-27T23:33:21.638Z,4.30
2018-04-27T23:35:55.379Z,3.87
2018-04-27T23:38:25.424Z,3.40
2018-04-27T23:40:58.446Z,4.17
2018-04-27T23:43:27.845Z,4.07
2018-04-27T23:45:57.135Z,3.93
2018-04-27T23:48:27.134Z,4.37
2018-04-27T23:50:57.259Z,4.23
2018-04-27T23:53:28.507Z,4.63
2018-04-27T23:55:58.725Z,4.43
2018-04-27T23:58:29.840Z,4.13
